Time;durP1;ratioP1;P1;durP2;ratioP2;P2;SDS_P1;SDS_P2;PMS_P1;PMS_P2;Temp;Humidity;BMP_temperature;BMP_pressure;BME280_temperature;BME280_humidity;BME280_pressure;Samples;Min_cycle;Max_cycle;Signal;HPM_P1;HPM_P2
2023/05/29 00:02:49;;;;;;;0.80;0.80;;;22.50;55.40;;;;;;222440;1268;24189;-54
2023/05/29 00:07:53;;;;;;;0.80;0.80;;;22.50;55.40;;;;;;222503;1268;22519;-54
2023/05/29 00:12:58;;;;;;;1.20;1.10;;;22.50;55.40;;;;;;222615;1268;25333;-54
2023/05/29 00:18:02;;;;;;;1.70;1.10;;;22.50;55.40;;;;;;222622;1268;26491;-56
2023/05/29 00:23:06;;;;;;;1.30;1.00;;;22.50;55.40;;;;;;222444;1268;22519;-53
2023/05/29 00:28:12;;;;;;;1.40;1.00;;;22.50;55.40;;;;;;222413;1268;24233;-54
2023/05/29 00:33:17;;;;;;;1.10;1.00;;;22.50;55.30;;;;;;222485;1269;25382;-56
2023/05/29 00:38:21;;;;;;;1.20;1.10;;;22.50;55.40;;;;;;221911;1269;25609;-53
2023/05/29 00:43:27;;;;;;;1.40;1.30;;;22.40;55.40;;;;;;222290;1269;24340;-54
2023/05/29 00:48:31;;;;;;;1.00;0.90;;;22.40;55.40;;;;;;222244;1268;24417;-55
2023/05/29 00:53:35;;;;;;;0.90;0.90;;;22.40;55.40;;;;;;222054;1263;22984;-55
2023/05/29 00:58:41;;;;;;;1.10;1.00;;;22.40;55.50;;;;;;222031;1269;22533;-52
2023/05/29 01:03:45;;;;;;;1.00;0.90;;;22.40;55.80;;;;;;222412;1269;23618;-55
2023/05/29 01:08:50;;;;;;;1.10;1.00;;;22.40;55.40;;;;;;222406;1269;22514;-51
2023/05/29 01:13:57;;;;;;;1.30;1.00;;;22.30;55.50;;;;;;222138;1269;22527;-52
2023/05/29 01:19:40;;;;;;;1.10;1.00;;;22.30;55.40;;;;;;222420;1269;22524;-53
2023/05/29 01:25:12;;;;;;;1.10;1.10;;;22.30;56.00;;;;;;222393;1266;22568;-57
2023/05/29 01:30:16;;;;;;;0.90;0.90;;;22.30;55.60;;;;;;222250;1268;24125;-55
2023/05/29 01:35:21;;;;;;;1.80;1.70;;;22.30;55.30;;;;;;222644;1264;22521;-51
2023/05/29 01:40:25;;;;;;;0.80;0.80;;;22.30;55.70;;;;;;222486;1268;25256;-52
2023/05/29 01:45:30;;;;;;;1.10;1.00;;;22.30;56.00;;;;;;222622;1264;23006;-53
2023/05/29 01:50:35;;;;;;;1.10;1.00;;;22.20;55.30;;;;;;222574;1268;24148;-56
2023/05/29 01:55:39;;;;;;;0.90;0.90;;;22.30;55.30;;;;;;222409;1268;25228;-53
2023/05/29 02:00:43;;;;;;;1.00;1.00;;;22.30;55.30;;;;;;222311;1269;22715;-53
2023/05/29 02:05:48;;;;;;;0.90;0.90;;;22.20;55.60;;;;;;222295;1269;22513;-54
2023/05/29 02:10:53;;;;;;;2.20;1.30;;;22.20;55.30;;;;;;222054;1269;202851;-52
2023/05/29 02:15:58;;;;;;;0.80;0.80;;;22.20;55.30;;;;;;222280;1264;22564;-53
2023/05/29 02:21:02;;;;;;;1.20;1.10;;;22.20;55.60;;;;;;222095;1269;25593;-55
2023/05/29 02:26:07;;;;;;;1.10;1.00;;;22.20;55.20;;;;;;222336;1264;25459;-53
2023/05/29 02:31:11;;;;;;;1.00;1.00;;;22.10;55.30;;;;;;222343;1264;22523;-55
2023/05/29 02:36:16;;;;;;;0.90;0.90;;;22.10;55.50;;;;;;221921;1270;22602;-54
2023/05/29 02:41:20;;;;;;;1.40;1.30;;;22.10;55.20;;;;;;222088;1270;23014;-53
2023/05/29 02:46:26;;;;;;;1.10;1.00;;;22.10;55.20;;;;;;221845;1270;24228;-53
2023/05/29 02:51:32;;;;;;;1.10;1.00;;;22.10;55.10;;;;;;221913;1270;22528;-53
2023/05/29 02:56:36;;;;;;;1.20;1.10;;;22.10;55.20;;;;;;221896;1268;24319;-51
2023/05/29 03:01:41;;;;;;;1.00;1.00;;;22.00;55.10;;;;;;222244;1269;22513;-53
2023/05/29 03:06:45;;;;;;;1.70;1.00;;;22.00;55.10;;;;;;222170;1269;22517;-58
2023/05/29 03:11:50;;;;;;;0.90;0.90;;;22.00;54.70;;;;;;222367;1264;22511;-54
2023/05/29 03:16:54;;;;;;;1.30;1.20;;;22.00;55.60;;;;;;222260;1247;25467;-54
2023/05/29 03:21:58;;;;;;;1.00;1.00;;;21.90;55.20;;;;;;222367;1269;23007;-52
2023/05/29 03:27:04;;;;;;;1.20;1.10;;;21.90;55.10;;;;;;222098;1269;22508;-50
2023/05/29 03:32:09;;;;;;;1.80;1.00;;;21.90;55.20;;;;;;222219;1264;22587;-53
2023/05/29 03:37:14;;;;;;;0.90;0.90;;;21.90;55.30;;;;;;222446;1267;22624;-53
2023/05/29 03:42:18;;;;;;;1.20;1.10;;;21.80;55.50;;;;;;222293;1269;22522;-53
2023/05/29 03:47:23;;;;;;;1.30;1.10;;;21.80;55.70;;;;;;222380;1266;22993;-53
2023/05/29 03:52:28;;;;;;;1.00;1.00;;;21.80;55.30;;;;;;222438;1267;22506;-48
2023/05/29 03:57:32;;;;;;;1.10;1.00;;;21.80;55.50;;;;;;222445;1268;24026;-53
2023/05/29 04:02:38;;;;;;;0.80;0.80;;;21.80;55.40;;;;;;222442;1268;22505;-51
2023/05/29 04:07:42;;;;;;;0.80;0.80;;;21.80;55.40;;;;;;222511;1268;23437;-52
2023/05/29 04:12:47;;;;;;;0.90;0.90;;;21.80;55.40;;;;;;222526;1268;22541;-57
2023/05/29 04:17:51;;;;;;;1.50;1.20;;;21.80;55.70;;;;;;222585;1264;22748;-54
2023/05/29 04:22:55;;;;;;;1.30;1.20;;;21.80;55.20;;;;;;222467;1268;23948;-53
2023/05/29 04:28:02;;;;;;;1.30;1.20;;;21.80;55.20;;;;;;222583;1267;23956;-56
2023/05/29 04:33:06;;;;;;;1.20;1.10;;;21.80;55.30;;;;;;222467;1268;22664;-53
2023/05/29 04:38:11;;;;;;;1.20;1.10;;;21.80;55.20;;;;;;222316;1268;22533;-53
2023/05/29 04:43:15;;;;;;;1.00;0.90;;;21.80;55.30;;;;;;222484;1267;22525;-52
2023/05/29 04:48:40;;;;;;;0.80;0.80;;;21.80;55.30;;;;;;222599;1268;22504;-53
2023/05/29 04:53:46;;;;;;;1.10;1.10;;;21.80;55.10;;;;;;222559;1268;22612;-56
2023/05/29 04:58:50;;;;;;;1.40;1.00;;;21.80;55.50;;;;;;222355;1268;24188;-52
2023/05/29 05:03:55;;;;;;;1.20;1.10;;;21.80;55.20;;;;;;222687;1254;23890;-54
2023/05/29 05:09:01;;;;;;;1.20;1.10;;;21.80;55.20;;;;;;222679;1268;25211;-55
2023/05/29 05:14:06;;;;;;;1.20;1.20;;;21.80;55.30;;;;;;222633;1262;22625;-57
2023/05/29 05:19:11;;;;;;;1.20;1.10;;;21.80;55.50;;;;;;222581;1268;24256;-58
2023/05/29 05:24:16;;;;;;;1.20;1.10;;;21.80;55.10;;;;;;222787;1261;22508;-55
2023/05/29 05:29:21;;;;;;;1.30;1.20;;;21.80;55.60;;;;;;222573;1268;24394;-51
2023/05/29 05:34:25;;;;;;;1.20;1.10;;;21.90;55.10;;;;;;222533;1268;22508;-55
2023/05/29 05:39:29;;;;;;;1.30;1.20;;;21.90;55.50;;;;;;222422;1266;22523;-53
2023/05/29 05:44:34;;;;;;;0.90;0.90;;;21.90;55.10;;;;;;222349;1244;25603;-51
2023/05/29 05:49:45;;;;;;;1.30;1.10;;;21.90;55.10;;;;;;222682;1268;25479;-55
2023/05/29 05:54:49;;;;;;;0.90;0.80;;;21.90;55.00;;;;;;222727;1268;22507;-54
2023/05/29 05:59:54;;;;;;;1.30;1.20;;;21.90;55.30;;;;;;222461;1268;23126;-54
2023/05/29 06:04:58;;;;;;;1.00;0.90;;;21.90;54.90;;;;;;222724;1267;22601;-55
2023/05/29 06:10:04;;;;;;;1.20;1.10;;;21.90;54.90;;;;;;222684;1267;22981;-57
2023/05/29 06:15:09;;;;;;;1.10;1.00;;;21.90;54.90;;;;;;222826;1254;24142;-52
2023/05/29 06:20:13;;;;;;;0.80;0.80;;;21.90;54.80;;;;;;222693;1268;24212;-53
2023/05/29 06:25:19;;;;;;;0.80;0.80;;;21.90;54.90;;;;;;222754;1268;24729;-52
2023/05/29 06:30:23;;;;;;;1.00;1.00;;;21.90;54.90;;;;;;222873;1260;24407;-52
2023/05/29 06:35:28;;;;;;;0.80;0.80;;;22.00;54.90;;;;;;222891;1267;25216;-53
2023/05/29 06:40:32;;;;;;;1.10;1.00;;;22.00;54.90;;;;;;222624;1266;22636;-53
2023/05/29 06:45:38;;;;;;;1.20;1.00;;;22.00;55.40;;;;;;223136;1268;22553;-54
2023/05/29 06:50:42;;;;;;;0.80;0.80;;;22.10;54.70;;;;;;223144;1267;23918;-51
2023/05/29 06:56:09;;;;;;;1.00;1.00;;;22.10;54.70;;;;;;222658;1256;24199;-53
2023/05/29 07:01:16;;;;;;;1.00;1.00;;;22.10;54.60;;;;;;222951;1267;25389;-53
2023/05/29 07:06:35;;;;;;;0.90;0.90;;;22.10;54.70;;;;;;223148;1268;22508;-54
2023/05/29 07:11:41;;;;;;;1.20;1.20;;;22.10;54.80;;;;;;222605;1265;22779;-51
2023/05/29 07:16:45;;;;;;;1.10;1.00;;;22.10;54.80;;;;;;222606;1268;22517;-57
2023/05/29 07:21:50;;;;;;;1.10;0.90;;;22.10;54.80;;;;;;222715;1267;22511;-51
2023/05/29 07:26:57;;;;;;;1.10;0.90;;;22.20;54.80;;;;;;222492;1268;25278;-52
2023/05/29 07:32:01;;;;;;;1.40;1.30;;;22.20;54.90;;;;;;222631;1262;23111;-48
2023/05/29 07:37:07;;;;;;;1.30;1.20;;;22.20;54.80;;;;;;223328;1269;22753;-49
2023/05/29 07:42:11;;;;;;;2.70;0.80;;;22.20;54.50;;;;;;223273;1269;24662;-52
2023/05/29 07:47:16;;;;;;;0.70;0.70;;;22.30;54.30;;;;;;222367;1269;25503;-53
2023/05/29 07:52:23;;;;;;;1.00;1.00;;;22.50;54.10;;;;;;222192;1268;22657;-52
2023/05/29 07:57:30;;;;;;;1.10;1.10;;;22.50;54.00;;;;;;222298;1267;25530;-55
2023/05/29 08:02:36;;;;;;;0.90;0.90;;;22.50;53.80;;;;;;222407;1263;23947;-54
2023/05/29 08:08:01;;;;;;;0.80;0.80;;;22.50;53.80;;;;;;222327;1267;22507;-53
2023/05/29 08:13:05;;;;;;;0.80;0.80;;;22.60;53.80;;;;;;222416;1267;22546;-53
2023/05/29 08:18:11;;;;;;;0.60;0.60;;;22.60;54.10;;;;;;222079;1269;22595;-53
2023/05/29 08:23:15;;;;;;;1.00;1.00;;;22.60;54.10;;;;;;222049;1269;22586;-52
2023/05/29 08:28:21;;;;;;;1.00;1.00;;;22.60;53.80;;;;;;222278;1269;22638;-56
2023/05/29 08:33:26;;;;;;;0.90;0.90;;;22.60;53.80;;;;;;222870;1265;22620;-48
2023/05/29 08:38:31;;;;;;;1.10;1.00;;;22.60;54.00;;;;;;222454;1265;22511;-55
2023/05/29 08:43:36;;;;;;;1.00;1.00;;;22.60;53.90;;;;;;222764;1268;22786;-53
2023/05/29 08:48:45;;;;;;;1.10;1.00;;;22.60;53.80;;;;;;222429;1268;22521;-52
2023/05/29 08:53:51;;;;;;;0.70;0.70;;;22.70;54.20;;;;;;222528;1262;22602;-56
2023/05/29 08:58:57;;;;;;;1.00;1.00;;;22.70;53.80;;;;;;222840;1268;25352;-54
2023/05/29 09:04:01;;;;;;;0.80;0.80;;;22.70;53.80;;;;;;222543;1268;22522;-57
2023/05/29 09:09:07;;;;;;;0.90;0.90;;;22.70;54.20;;;;;;222632;1268;22722;-51
2023/05/29 09:14:33;;;;;;;1.00;0.90;;;22.70;53.80;;;;;;222548;1265;25393;-55
2023/05/29 09:19:40;;;;;;;1.10;1.00;;;22.70;53.90;;;;;;222405;1268;24179;-54
2023/05/29 09:24:48;;;;;;;0.90;0.90;;;22.80;53.70;;;;;;222835;1268;22685;-52
2023/05/29 09:29:52;;;;;;;0.80;0.80;;;22.80;53.80;;;;;;222378;1268;25269;-52
2023/05/29 09:35:00;;;;;;;1.00;1.00;;;22.80;53.80;;;;;;222005;1267;24268;-53
2023/05/29 09:40:06;;;;;;;0.70;0.70;;;22.80;53.80;;;;;;222430;1263;25269;-54
2023/05/29 09:45:12;;;;;;;1.20;1.10;;;22.90;54.00;;;;;;222336;1259;25273;-49
2023/05/29 09:50:22;;;;;;;0.70;0.70;;;22.90;54.00;;;;;;222091;1269;24240;-53
2023/05/29 09:55:28;;;;;;;1.00;0.90;;;22.90;53.80;;;;;;222279;1266;22525;-53
2023/05/29 10:00:32;;;;;;;0.80;0.80;;;22.90;53.80;;;;;;222216;1265;25390;-52
2023/05/29 10:05:38;;;;;;;0.60;0.60;;;22.90;53.80;;;;;;222305;1267;22533;-50
2023/05/29 10:10:47;;;;;;;0.80;0.80;;;22.90;53.70;;;;;;222262;1269;22713;-53
2023/05/29 10:15:54;;;;;;;1.10;1.00;;;23.00;53.70;;;;;;222200;1268;22510;-55
2023/05/29 10:21:01;;;;;;;1.00;0.90;;;23.00;54.10;;;;;;222219;1269;22567;-52
2023/05/29 10:26:14;;;;;;;1.10;0.90;;;23.10;53.60;;;;;;222502;1269;24217;-52
2023/05/29 10:31:44;;;;;;;0.70;0.70;;;23.10;53.50;;;;;;222219;1262;22523;-53
2023/05/29 10:37:03;;;;;;;0.60;0.60;;;23.10;53.50;;;;;;221491;1270;22845;-50
2023/05/29 10:42:39;;;;;;;0.90;0.90;;;23.20;53.30;;;;;;221415;1274;24217;-54
2023/05/29 10:47:43;;;;;;;1.00;0.90;;;23.20;53.30;;;;;;221410;1274;22514;-54
2023/05/29 10:52:47;;;;;;;1.20;1.10;;;23.30;53.30;;;;;;221244;1265;22649;-54
2023/05/29 10:57:51;;;;;;;0.80;0.80;;;23.30;53.30;;;;;;221410;1274;22531;-55
2023/05/29 11:02:56;;;;;;;0.80;0.80;;;23.30;53.60;;;;;;221372;1274;22737;-52
2023/05/29 11:08:05;;;;;;;0.80;0.80;;;23.30;53.30;;;;;;221420;1273;22600;-54
2023/05/29 11:13:09;;;;;;;0.80;0.80;;;23.30;53.30;;;;;;222102;1268;23141;-52
2023/05/29 11:18:14;;;;;;;0.80;0.80;;;23.40;53.20;;;;;;222442;1268;24365;-53
2023/05/29 11:23:19;;;;;;;0.80;0.80;;;23.40;53.20;;;;;;222355;1268;26532;-57
2023/05/29 11:28:23;;;;;;;0.60;0.60;;;23.40;53.10;;;;;;222753;1265;22637;-54
2023/05/29 11:33:29;;;;;;;0.70;0.70;;;23.50;52.70;;;;;;222488;1268;22513;-52
2023/05/29 11:38:33;;;;;;;0.70;0.70;;;23.50;53.10;;;;;;222382;1268;22524;-52
2023/05/29 11:43:37;;;;;;;0.80;0.80;;;23.50;53.10;;;;;;222599;1265;22782;-54
2023/05/29 11:48:46;;;;;;;0.80;0.70;;;23.60;53.10;;;;;;222453;1268;22634;-54
2023/05/29 11:53:53;;;;;;;0.80;0.80;;;23.50;53.10;;;;;;222492;1265;22513;-49
2023/05/29 11:58:59;;;;;;;0.70;0.70;;;23.60;53.40;;;;;;222659;1263;24170;-50
2023/05/29 12:04:14;;;;;;;0.70;0.70;;;23.60;53.00;;;;;;222524;1268;23079;-51
2023/05/29 12:09:26;;;;;;;0.90;0.90;;;23.60;53.10;;;;;;222436;1268;23465;-50
2023/05/29 12:14:30;;;;;;;0.60;0.60;;;23.70;53.00;;;;;;222540;1265;24199;-52
2023/05/29 12:19:35;;;;;;;0.80;0.80;;;23.70;53.10;;;;;;222448;1268;25320;-54
2023/05/29 12:24:39;;;;;;;0.80;0.80;;;23.70;53.10;;;;;;222429;1263;22514;-54
2023/05/29 12:29:46;;;;;;;0.60;0.60;;;23.60;53.10;;;;;;222546;1268;22745;-52
2023/05/29 12:34:51;;;;;;;0.70;0.70;;;23.70;53.10;;;;;;222492;1268;22530;-52
2023/05/29 12:40:15;;;;;;;0.70;0.70;;;23.70;53.20;;;;;;222647;1246;24074;-51
2023/05/29 12:45:19;;;;;;;0.80;0.80;;;23.70;53.30;;;;;;222492;1268;22534;-53
2023/05/29 12:50:28;;;;;;;0.60;0.60;;;23.60;53.40;;;;;;222419;1268;22513;-49
2023/05/29 12:55:38;;;;;;;0.80;0.80;;;23.70;53.60;;;;;;222603;1268;22724;-53
2023/05/29 13:00:45;;;;;;;0.70;0.70;;;23.70;53.70;;;;;;222849;1264;25256;-51
2023/05/29 13:05:50;;;;;;;0.60;0.60;;;23.70;53.60;;;;;;222512;1268;22638;-55
2023/05/29 13:10:54;;;;;;;0.70;0.70;;;23.70;53.30;;;;;;222301;1268;22632;-52
2023/05/29 13:15:58;;;;;;;0.90;0.90;;;23.70;53.60;;;;;;222402;1268;22511;-51
2023/05/29 13:21:03;;;;;;;0.70;0.70;;;23.70;53.40;;;;;;222450;1268;25263;-53
2023/05/29 13:26:07;;;;;;;0.60;0.60;;;23.70;53.40;;;;;;222561;1268;25246;-54
2023/05/29 13:31:11;;;;;;;0.80;0.80;;;23.70;53.50;;;;;;222495;1268;22538;-52
2023/05/29 13:36:15;;;;;;;0.60;0.60;;;23.70;53.60;;;;;;222681;1262;24196;-50
2023/05/29 13:41:20;;;;;;;0.70;0.70;;;23.70;53.50;;;;;;222498;1268;22560;-54
2023/05/29 13:46:24;;;;;;;0.80;0.80;;;23.80;53.60;;;;;;222323;1268;22516;-50
2023/05/29 13:51:28;;;;;;;0.70;0.60;;;23.70;53.50;;;;;;222432;1268;22626;-51
2023/05/29 13:56:32;;;;;;;0.90;0.70;;;23.80;53.60;;;;;;222483;1268;22511;-52
2023/05/29 14:01:36;;;;;;;0.60;0.60;;;23.80;53.60;;;;;;222568;1268;23210;-54
2023/05/29 14:06:41;;;;;;;1.00;0.90;;;23.80;53.60;;;;;;222570;1267;22508;-52
2023/05/29 14:11:45;;;;;;;0.50;0.50;;;23.80;53.60;;;;;;222285;1268;261547;-54
2023/05/29 14:16:50;;;;;;;0.80;0.80;;;23.70;54.30;;;;;;222811;1268;22618;-53
2023/05/29 14:21:54;;;;;;;0.70;0.70;;;23.70;53.60;;;;;;222566;1268;22521;-54
2023/05/29 14:26:58;;;;;;;1.00;0.90;;;23.80;54.00;;;;;;222414;1265;22531;-55
2023/05/29 14:32:02;;;;;;;0.60;0.60;;;23.80;54.10;;;;;;222514;1247;24224;-52
2023/05/29 14:37:06;;;;;;;0.50;0.50;;;23.80;53.60;;;;;;222972;1268;25151;-50
2023/05/29 14:42:10;;;;;;;0.60;0.60;;;23.90;53.60;;;;;;222633;1268;24183;-52
2023/05/29 14:47:15;;;;;;;0.80;0.80;;;23.80;53.60;;;;;;222455;1268;22523;-53
2023/05/29 14:52:19;;;;;;;0.70;0.70;;;23.80;53.80;;;;;;222571;1268;22756;-54
2023/05/29 14:57:23;;;;;;;1.20;0.80;;;23.80;53.70;;;;;;222686;1268;24411;-54
2023/05/29 15:02:27;;;;;;;0.80;0.80;;;23.80;53.70;;;;;;222384;1268;22614;-52
2023/05/29 15:07:34;;;;;;;0.80;0.80;;;23.90;53.90;;;;;;222545;1252;24216;-54
2023/05/29 15:12:37;;;;;;;0.60;0.60;;;23.80;53.90;;;;;;222528;1268;25269;-53
2023/05/29 15:17:42;;;;;;;0.70;0.70;;;23.80;54.00;;;;;;222412;1268;22525;-57
2023/05/29 15:22:47;;;;;;;0.70;0.70;;;23.80;53.40;;;;;;222607;1268;24173;-52
2023/05/29 15:27:52;;;;;;;0.80;0.80;;;23.80;54.00;;;;;;222694;1268;25461;-51
2023/05/29 15:32:55;;;;;;;0.70;0.70;;;23.90;54.10;;;;;;222502;1265;22646;-52
2023/05/29 15:38:00;;;;;;;0.80;0.80;;;23.90;54.00;;;;;;222233;1269;22638;-53
2023/05/29 15:43:04;;;;;;;0.80;0.80;;;23.90;54.10;;;;;;222192;1269;23354;-50
2023/05/29 15:48:08;;;;;;;0.90;0.90;;;23.80;54.00;;;;;;222358;1268;23145;-54
2023/05/29 15:53:12;;;;;;;0.60;0.60;;;23.90;54.10;;;;;;222379;1269;22510;-56
2023/05/29 15:58:16;;;;;;;1.00;1.00;;;23.80;54.00;;;;;;222395;1268;25365;-52
2023/05/29 16:03:20;;;;;;;0.70;0.70;;;23.80;54.10;;;;;;222462;1268;26596;-55
2023/05/29 16:08:25;;;;;;;0.70;0.70;;;23.80;54.10;;;;;;222333;1268;22526;-53
2023/05/29 16:13:32;;;;;;;0.70;0.70;;;23.90;54.20;;;;;;222536;1268;22507;-51
2023/05/29 16:18:36;;;;;;;0.70;0.70;;;23.90;54.10;;;;;;222607;1268;22517;-49
2023/05/29 16:23:41;;;;;;;0.60;0.60;;;23.80;54.60;;;;;;222389;1268;22623;-54
2023/05/29 16:28:45;;;;;;;0.80;0.80;;;23.80;54.10;;;;;;222591;1268;22836;-51
2023/05/29 16:33:49;;;;;;;0.80;0.80;;;23.80;54.10;;;;;;222655;1268;22526;-53
2023/05/29 16:38:53;;;;;;;0.50;0.50;;;23.80;54.40;;;;;;222378;1268;24167;-52
2023/05/29 16:43:57;;;;;;;0.60;0.60;;;23.80;54.30;;;;;;222700;1268;22510;-51
2023/05/29 16:49:01;;;;;;;1.00;0.90;;;23.70;54.40;;;;;;222524;1268;24206;-51
2023/05/29 16:54:06;;;;;;;0.90;0.90;;;23.70;54.50;;;;;;222606;1268;24401;-55
2023/05/29 16:59:11;;;;;;;0.90;0.90;;;23.70;54.50;;;;;;222410;1269;26049;-54
2023/05/29 17:04:15;;;;;;;0.80;0.80;;;23.70;54.50;;;;;;222435;1267;25492;-56
2023/05/29 17:09:26;;;;;;;1.00;1.00;;;23.70;54.50;;;;;;222235;1269;23123;-54
2023/05/29 17:14:31;;;;;;;0.90;0.90;;;23.70;54.50;;;;;;222180;1269;24834;-52
2023/05/29 17:19:35;;;;;;;0.70;0.70;;;23.70;54.50;;;;;;222328;1269;22654;-52
2023/05/29 17:24:39;;;;;;;0.70;0.70;;;23.70;54.50;;;;;;222326;1269;24220;-51
2023/05/29 17:29:43;;;;;;;0.80;0.80;;;23.70;54.30;;;;;;222102;1268;22635;-56
2023/05/29 17:34:49;;;;;;;0.70;0.70;;;23.70;54.30;;;;;;222308;1268;23171;-55
2023/05/29 17:39:54;;;;;;;0.90;0.90;;;23.60;54.30;;;;;;222828;1268;22946;-53
2023/05/29 17:44:58;;;;;;;0.70;0.70;;;23.60;54.30;;;;;;222563;1268;22511;-53
2023/05/29 17:50:03;;;;;;;1.00;0.90;;;23.60;54.50;;;;;;222520;1268;22514;-54
2023/05/29 17:55:10;;;;;;;0.90;0.90;;;23.60;54.20;;;;;;222997;1268;24046;-56
2023/05/29 18:00:15;;;;;;;0.70;0.70;;;23.60;54.30;;;;;;222625;1260;22505;-56
2023/05/29 18:05:20;;;;;;;0.70;0.70;;;23.60;54.40;;;;;;222672;1268;22630;-54
2023/05/29 18:10:25;;;;;;;0.80;0.80;;;23.60;54.20;;;;;;222355;1268;22564;-55
2023/05/29 18:15:29;;;;;;;0.70;0.70;;;23.60;54.30;;;;;;222592;1268;23001;-56
2023/05/29 18:20:34;;;;;;;1.00;0.90;;;23.60;54.40;;;;;;222609;1266;23511;-55
2023/05/29 18:25:38;;;;;;;1.00;1.00;;;23.50;54.20;;;;;;222897;1268;22518;-54
2023/05/29 18:30:42;;;;;;;0.90;0.90;;;23.50;54.60;;;;;;222433;1266;22504;-54
2023/05/29 18:35:46;;;;;;;0.80;0.80;;;23.50;54.40;;;;;;222481;1268;24185;-54
2023/05/29 18:40:50;;;;;;;0.90;0.90;;;23.50;54.40;;;;;;222316;1268;22527;-54
2023/05/29 18:45:55;;;;;;;1.10;0.90;;;23.50;54.30;;;;;;222498;1268;22519;-52
2023/05/29 18:51:01;;;;;;;0.80;0.70;;;23.50;54.30;;;;;;222364;1269;25478;-53
2023/05/29 18:56:08;;;;;;;1.00;0.90;;;23.50;54.40;;;;;;222406;1269;25954;-53
2023/05/29 19:01:12;;;;;;;1.10;0.80;;;23.40;54.30;;;;;;222251;1269;22506;-57
2023/05/29 19:06:35;;;;;;;1.10;1.10;;;23.40;54.30;;;;;;222180;1269;25608;-51
2023/05/29 19:11:39;;;;;;;0.80;0.80;;;23.40;54.30;;;;;;222135;1269;22511;-52
2023/05/29 19:16:43;;;;;;;1.60;1.00;;;23.40;54.30;;;;;;222174;1268;23918;-53
2023/05/29 19:21:47;;;;;;;1.70;1.10;;;23.40;54.30;;;;;;222245;1269;22529;-51
2023/05/29 19:26:51;;;;;;;1.10;1.00;;;23.40;54.40;;;;;;222232;1269;25216;-51
2023/05/29 19:31:56;;;;;;;1.10;1.00;;;23.30;54.60;;;;;;222331;1268;24164;-51
2023/05/29 19:37:00;;;;;;;1.10;1.00;;;23.40;54.60;;;;;;222481;1254;24232;-52
2023/05/29 19:42:08;;;;;;;1.30;1.10;;;23.30;54.60;;;;;;222537;1268;23887;-53
2023/05/29 19:47:13;;;;;;;1.50;1.10;;;23.30;54.70;;;;;;222772;1268;22521;-52
2023/05/29 19:52:17;;;;;;;0.90;0.90;;;23.30;55.10;;;;;;222757;1268;24388;-53
2023/05/29 19:57:24;;;;;;;0.90;0.80;;;23.30;54.80;;;;;;222505;1268;22713;-52
2023/05/29 20:02:32;;;;;;;1.40;1.10;;;23.30;54.80;;;;;;222631;1266;22533;-52
2023/05/29 20:07:36;;;;;;;1.10;1.00;;;23.30;54.80;;;;;;222531;1268;22978;-53
2023/05/29 20:12:41;;;;;;;1.20;1.10;;;23.30;54.80;;;;;;222572;1268;23915;-52
2023/05/29 20:17:45;;;;;;;1.10;1.10;;;23.30;54.70;;;;;;222542;1268;22573;-54
2023/05/29 20:22:50;;;;;;;1.10;1.10;;;23.30;54.80;;;;;;222479;1268;22518;-50
2023/05/29 20:27:54;;;;;;;1.30;1.10;;;23.30;55.20;;;;;;222550;1266;25591;-51
2023/05/29 20:32:58;;;;;;;1.00;1.00;;;23.30;54.90;;;;;;222418;1268;22801;-53
2023/05/29 20:38:02;;;;;;;1.10;1.10;;;23.30;54.90;;;;;;222560;1268;22518;-56
2023/05/29 20:43:06;;;;;;;1.20;1.10;;;23.30;54.90;;;;;;222494;1268;22602;-55
2023/05/29 20:48:11;;;;;;;0.90;0.90;;;23.20;54.90;;;;;;222593;1268;25600;-56
2023/05/29 20:53:15;;;;;;;1.00;1.00;;;23.20;55.10;;;;;;222338;1268;22505;-52
2023/05/29 20:58:19;;;;;;;1.10;1.00;;;23.20;55.00;;;;;;222354;1268;22596;-53
2023/05/29 21:03:23;;;;;;;1.00;1.00;;;23.20;55.00;;;;;;222523;1268;22600;-55
2023/05/29 21:08:29;;;;;;;0.80;0.80;;;23.20;55.10;;;;;;222363;1268;23184;-54
2023/05/29 21:13:35;;;;;;;1.30;1.20;;;23.10;55.00;;;;;;222681;1268;25376;-53
2023/05/29 21:18:40;;;;;;;1.20;1.20;;;23.20;55.10;;;;;;222346;1268;23911;-53
2023/05/29 21:23:45;;;;;;;1.70;0.90;;;23.20;55.10;;;;;;222525;1268;24228;-54
2023/05/29 21:28:49;;;;;;;0.80;0.80;;;23.10;55.00;;;;;;222614;1268;22518;-52
2023/05/29 21:33:53;;;;;;;1.10;0.90;;;23.20;55.40;;;;;;222366;1267;22514;-55
2023/05/29 21:38:57;;;;;;;1.20;1.20;;;23.10;55.00;;;;;;222338;1268;22561;-54
2023/05/29 21:44:02;;;;;;;1.30;1.20;;;23.10;55.00;;;;;;222393;1268;22531;-51
2023/05/29 21:49:06;;;;;;;1.10;1.10;;;23.10;55.00;;;;;;222532;1268;24282;-54
2023/05/29 21:54:10;;;;;;;1.00;1.00;;;23.10;55.00;;;;;;222179;1268;22596;-53
2023/05/29 21:59:14;;;;;;;1.10;1.00;;;23.10;55.10;;;;;;222386;1268;22514;-52
2023/05/29 22:04:18;;;;;;;1.10;0.80;;;23.10;55.10;;;;;;222242;1268;22723;-52
2023/05/29 22:09:22;;;;;;;0.70;0.70;;;23.10;55.10;;;;;;222541;1268;22588;-51
2023/05/29 22:14:26;;;;;;;1.10;1.10;;;23.10;55.20;;;;;;222499;1268;22623;-54
2023/05/29 22:19:30;;;;;;;0.80;0.80;;;23.00;55.10;;;;;;222506;1268;24243;-54
2023/05/29 22:24:37;;;;;;;1.10;1.10;;;23.00;55.20;;;;;;222497;1268;24202;-52
2023/05/29 22:29:41;;;;;;;1.10;1.00;;;23.00;55.20;;;;;;222729;1268;24407;-54
2023/05/29 22:34:45;;;;;;;1.20;1.00;;;23.00;55.20;;;;;;222070;1269;25351;-54
2023/05/29 22:39:49;;;;;;;1.00;1.00;;;23.00;55.20;;;;;;222084;1269;22616;-53
2023/05/29 22:44:53;;;;;;;0.80;0.80;;;23.00;55.20;;;;;;222367;1269;22514;-55
2023/05/29 22:49:58;;;;;;;1.00;1.00;;;23.00;54.70;;;;;;222206;1269;22522;-53
2023/05/29 22:55:04;;;;;;;1.10;1.10;;;23.00;55.20;;;;;;222108;1267;22773;-54
2023/05/29 23:00:08;;;;;;;1.10;1.00;;;23.00;55.20;;;;;;222434;1268;22548;-53
2023/05/29 23:05:14;;;;;;;0.90;0.90;;;23.00;55.10;;;;;;222460;1268;26030;-53
2023/05/29 23:10:18;;;;;;;1.10;1.00;;;23.00;55.30;;;;;;222542;1268;26528;-51
2023/05/29 23:15:22;;;;;;;1.00;1.00;;;23.00;55.30;;;;;;222417;1260;22534;-53
2023/05/29 23:20:27;;;;;;;1.30;1.20;;;23.00;55.30;;;;;;222548;1268;24334;-52
2023/05/29 23:25:31;;;;;;;1.00;0.90;;;23.00;55.30;;;;;;222452;1268;22517;-51
2023/05/29 23:30:35;;;;;;;1.00;1.00;;;23.00;55.00;;;;;;222534;1260;24243;-53
2023/05/29 23:35:39;;;;;;;1.40;1.20;;;23.00;55.30;;;;;;222520;1268;24337;-53
2023/05/29 23:40:43;;;;;;;1.00;1.00;;;22.90;55.30;;;;;;222402;1268;26484;-52
2023/05/29 23:45:47;;;;;;;1.40;1.30;;;22.90;55.30;;;;;;222548;1268;22524;-51
2023/05/29 23:50:52;;;;;;;1.20;1.10;;;23.00;56.00;;;;;;222537;1268;25357;-51
2023/05/29 23:55:56;;;;;;;0.90;0.90;;;22.90;55.30;;;;;;222497;1268;22530;-56
